sensor_id;sensor_type;location;lat;lon;timestamp;P1;durP1;ratioP1;P2;durP2;ratioP2
42196;SDS011;27866;48.146;17.098;2022-11-21T00:03:18;72.57;;;33.33;;
42196;SDS011;27866;48.146;17.098;2022-11-21T00:07:30;66.25;;;32.05;;
42196;SDS011;27866;48.146;17.098;2022-11-21T00:11:41;69.28;;;32.83;;
42196;SDS011;27866;48.146;17.098;2022-11-21T00:15:52;67.75;;;31.73;;
42196;SDS011;27866;48.146;17.098;2022-11-21T00:20:05;66.28;;;30.80;;
42196;SDS011;27866;48.146;17.098;2022-11-21T00:24:17;67.05;;;32.03;;
42196;SDS011;27866;48.146;17.098;2022-11-21T00:28:28;64.30;;;30.10;;
42196;SDS011;27866;48.146;17.098;2022-11-21T00:32:39;65.95;;;29.10;;
42196;SDS011;27866;48.146;17.098;2022-11-21T00:36:50;61.83;;;28.58;;
42196;SDS011;27866;48.146;17.098;2022-11-21T00:41:01;59.08;;;28.92;;
42196;SDS011;27866;48.146;17.098;2022-11-21T00:45:12;58.60;;;27.30;;
42196;SDS011;27866;48.146;17.098;2022-11-21T00:49:24;66.28;;;28.55;;
42196;SDS011;27866;48.146;17.098;2022-11-21T00:53:35;78.80;;;33.92;;
42196;SDS011;27866;48.146;17.098;2022-11-21T00:57:46;83.47;;;35.53;;
42196;SDS011;27866;48.146;17.098;2022-11-21T01:01:57;88.63;;;36.40;;
42196;SDS011;27866;48.146;17.098;2022-11-21T01:06:09;78.55;;;35.67;;
42196;SDS011;27866;48.146;17.098;2022-11-21T01:10:22;91.05;;;39.40;;
42196;SDS011;27866;48.146;17.098;2022-11-21T01:14:33;98.47;;;39.80;;
42196;SDS011;27866;48.146;17.098;2022-11-21T01:18:46;95.82;;;41.20;;
42196;SDS011;27866;48.146;17.098;2022-11-21T01:22:57;117.10;;;44.25;;
42196;SDS011;27866;48.146;17.098;2022-11-21T01:27:08;127.32;;;47.05;;
42196;SDS011;27866;48.146;17.098;2022-11-21T01:31:23;162.68;;;52.00;;
42196;SDS011;27866;48.146;17.098;2022-11-21T01:35:37;175.07;;;55.33;;
42196;SDS011;27866;48.146;17.098;2022-11-21T01:39:48;160.88;;;55.55;;
42196;SDS011;27866;48.146;17.098;2022-11-21T01:44:00;149.10;;;53.15;;
42196;SDS011;27866;48.146;17.098;2022-11-21T01:48:19;142.15;;;49.50;;
42196;SDS011;27866;48.146;17.098;2022-11-21T01:52:54;158.43;;;51.88;;
42196;SDS011;27866;48.146;17.098;2022-11-21T02:01:30;162.82;;;54.58;;
42196;SDS011;27866;48.146;17.098;2022-11-21T02:05:43;206.00;;;56.10;;
42196;SDS011;27866;48.146;17.098;2022-11-21T02:09:56;173.45;;;52.17;;
42196;SDS011;27866;48.146;17.098;2022-11-21T02:14:11;201.30;;;50.45;;
42196;SDS011;27866;48.146;17.098;2022-11-21T02:18:22;151.65;;;48.75;;
42196;SDS011;27866;48.146;17.098;2022-11-21T02:27:11;179.13;;;48.53;;
42196;SDS011;27866;48.146;17.098;2022-11-21T02:31:22;140.90;;;46.00;;
42196;SDS011;27866;48.146;17.098;2022-11-21T02:35:34;208.32;;;47.85;;
42196;SDS011;27866;48.146;17.098;2022-11-21T02:39:45;236.77;;;51.83;;
42196;SDS011;27866;48.146;17.098;2022-11-21T02:44:03;150.18;;;48.58;;
42196;SDS011;27866;48.146;17.098;2022-11-21T02:48:19;177.98;;;49.80;;
42196;SDS011;27866;48.146;17.098;2022-11-21T02:52:30;274.83;;;47.38;;
42196;SDS011;27866;48.146;17.098;2022-11-21T02:56:41;177.95;;;45.92;;
42196;SDS011;27866;48.146;17.098;2022-11-21T03:00:52;321.85;;;48.25;;
42196;SDS011;27866;48.146;17.098;2022-11-21T03:05:05;214.43;;;44.20;;
42196;SDS011;27866;48.146;17.098;2022-11-21T03:09:19;151.48;;;39.22;;
42196;SDS011;27866;48.146;17.098;2022-11-21T03:13:30;259.20;;;44.05;;
42196;SDS011;27866;48.146;17.098;2022-11-21T03:17:41;161.60;;;39.78;;
42196;SDS011;27866;48.146;17.098;2022-11-21T03:21:52;139.00;;;40.22;;
42196;SDS011;27866;48.146;17.098;2022-11-21T03:26:04;162.95;;;37.85;;
42196;SDS011;27866;48.146;17.098;2022-11-21T03:30:15;153.73;;;38.47;;
42196;SDS011;27866;48.146;17.098;2022-11-21T03:34:26;202.98;;;42.80;;
42196;SDS011;27866;48.146;17.098;2022-11-21T03:38:37;130.02;;;35.60;;
42196;SDS011;27866;48.146;17.098;2022-11-21T03:42:49;139.57;;;35.40;;
42196;SDS011;27866;48.146;17.098;2022-11-21T03:47:01;120.68;;;34.97;;
42196;SDS011;27866;48.146;17.098;2022-11-21T03:51:12;238.85;;;41.75;;
42196;SDS011;27866;48.146;17.098;2022-11-21T03:55:23;162.18;;;38.50;;
42196;SDS011;27866;48.146;17.098;2022-11-21T03:59:34;136.48;;;35.00;;
42196;SDS011;27866;48.146;17.098;2022-11-21T04:03:45;163.35;;;37.13;;
42196;SDS011;27866;48.146;17.098;2022-11-21T04:07:57;153.98;;;36.70;;
42196;SDS011;27866;48.146;17.098;2022-11-21T04:12:08;145.48;;;37.15;;
42196;SDS011;27866;48.146;17.098;2022-11-21T04:16:19;141.35;;;37.15;;
42196;SDS011;27866;48.146;17.098;2022-11-21T04:20:30;134.18;;;36.58;;
42196;SDS011;27866;48.146;17.098;2022-11-21T04:24:42;131.00;;;36.97;;
42196;SDS011;27866;48.146;17.098;2022-11-21T04:28:53;154.45;;;39.22;;
42196;SDS011;27866;48.146;17.098;2022-11-21T04:33:04;130.82;;;37.67;;
42196;SDS011;27866;48.146;17.098;2022-11-21T04:37:15;116.55;;;37.70;;
42196;SDS011;27866;48.146;17.098;2022-11-21T04:41:26;129.52;;;37.90;;
42196;SDS011;27866;48.146;17.098;2022-11-21T04:45:37;94.25;;;35.60;;
42196;SDS011;27866;48.146;17.098;2022-11-21T04:49:48;98.60;;;35.45;;
42196;SDS011;27866;48.146;17.098;2022-11-21T04:54:00;108.60;;;34.83;;
42196;SDS011;27866;48.146;17.098;2022-11-21T04:58:11;148.32;;;37.15;;
42196;SDS011;27866;48.146;17.098;2022-11-21T05:02:23;166.43;;;40.85;;
42196;SDS011;27866;48.146;17.098;2022-11-21T05:06:34;125.78;;;37.30;;
42196;SDS011;27866;48.146;17.098;2022-11-21T05:10:45;127.70;;;34.95;;
42196;SDS011;27866;48.146;17.098;2022-11-21T05:15:15;116.35;;;35.63;;
42196;SDS011;27866;48.146;17.098;2022-11-21T05:19:27;137.65;;;34.40;;
42196;SDS011;27866;48.146;17.098;2022-11-21T05:23:38;126.80;;;36.05;;
42196;SDS011;27866;48.146;17.098;2022-11-21T05:27:49;123.78;;;35.75;;
42196;SDS011;27866;48.146;17.098;2022-11-21T05:32:00;59.17;;;22.25;;
42196;SDS011;27866;48.146;17.098;2022-11-21T05:36:11;75.28;;;19.95;;
42196;SDS011;27866;48.146;17.098;2022-11-21T05:40:22;93.28;;;19.77;;
42196;SDS011;27866;48.146;17.098;2022-11-21T05:44:34;110.03;;;19.90;;
42196;SDS011;27866;48.146;17.098;2022-11-21T05:48:46;72.35;;;18.02;;
42196;SDS011;27866;48.146;17.098;2022-11-21T05:53:04;82.25;;;19.10;;
42196;SDS011;27866;48.146;17.098;2022-11-21T05:57:16;109.85;;;17.75;;
42196;SDS011;27866;48.146;17.098;2022-11-21T06:01:27;49.17;;;17.38;;
42196;SDS011;27866;48.146;17.098;2022-11-21T06:10:12;86.72;;;17.35;;
42196;SDS011;27866;48.146;17.098;2022-11-21T06:14:23;73.53;;;19.90;;
42196;SDS011;27866;48.146;17.098;2022-11-21T06:18:35;56.90;;;16.92;;
42196;SDS011;27866;48.146;17.098;2022-11-21T06:22:48;62.80;;;17.08;;
42196;SDS011;27866;48.146;17.098;2022-11-21T06:26:59;47.38;;;15.07;;
42196;SDS011;27866;48.146;17.098;2022-11-21T06:31:11;70.03;;;17.48;;
42196;SDS011;27866;48.146;17.098;2022-11-21T06:35:35;48.33;;;16.42;;
42196;SDS011;27866;48.146;17.098;2022-11-21T06:39:48;36.13;;;16.23;;
42196;SDS011;27866;48.146;17.098;2022-11-21T06:43:59;38.53;;;17.25;;
42196;SDS011;27866;48.146;17.098;2022-11-21T06:48:13;33.60;;;16.08;;
42196;SDS011;27866;48.146;17.098;2022-11-21T06:52:24;34.97;;;16.98;;
42196;SDS011;27866;48.146;17.098;2022-11-21T06:56:36;37.60;;;16.95;;
42196;SDS011;27866;48.146;17.098;2022-11-21T07:00:47;28.67;;;15.98;;
42196;SDS011;27866;48.146;17.098;2022-11-21T07:04:58;41.20;;;19.83;;
42196;SDS011;27866;48.146;17.098;2022-11-21T07:09:10;33.53;;;17.23;;
42196;SDS011;27866;48.146;17.098;2022-11-21T07:13:21;35.40;;;17.83;;
42196;SDS011;27866;48.146;17.098;2022-11-21T07:17:32;42.08;;;20.38;;
42196;SDS011;27866;48.146;17.098;2022-11-21T07:21:43;36.22;;;19.20;;
42196;SDS011;27866;48.146;17.098;2022-11-21T07:25:58;36.17;;;18.60;;
42196;SDS011;27866;48.146;17.098;2022-11-21T07:30:20;31.05;;;16.83;;
42196;SDS011;27866;48.146;17.098;2022-11-21T07:34:31;27.25;;;16.38;;
42196;SDS011;27866;48.146;17.098;2022-11-21T07:38:44;29.40;;;15.63;;
42196;SDS011;27866;48.146;17.098;2022-11-21T07:43:13;29.77;;;16.30;;
42196;SDS011;27866;48.146;17.098;2022-11-21T07:47:25;27.38;;;16.15;;
42196;SDS011;27866;48.146;17.098;2022-11-21T07:51:36;26.88;;;15.07;;
42196;SDS011;27866;48.146;17.098;2022-11-21T07:55:47;25.25;;;15.57;;
42196;SDS011;27866;48.146;17.098;2022-11-21T07:59:58;29.70;;;16.70;;
42196;SDS011;27866;48.146;17.098;2022-11-21T08:04:09;44.50;;;22.20;;
42196;SDS011;27866;48.146;17.098;2022-11-21T08:08:20;40.13;;;22.08;;
42196;SDS011;27866;48.146;17.098;2022-11-21T08:12:32;59.25;;;27.40;;
42196;SDS011;27866;48.146;17.098;2022-11-21T08:16:43;49.80;;;25.33;;
42196;SDS011;27866;48.146;17.098;2022-11-21T08:20:54;52.03;;;27.02;;
42196;SDS011;27866;48.146;17.098;2022-11-21T08:25:05;54.50;;;28.88;;
42196;SDS011;27866;48.146;17.098;2022-11-21T08:29:19;62.03;;;30.90;;
42196;SDS011;27866;48.146;17.098;2022-11-21T08:33:30;61.70;;;30.98;;
42196;SDS011;27866;48.146;17.098;2022-11-21T08:37:42;61.63;;;30.80;;
42196;SDS011;27866;48.146;17.098;2022-11-21T08:41:53;63.67;;;30.55;;
42196;SDS011;27866;48.146;17.098;2022-11-21T08:46:13;63.13;;;29.95;;
42196;SDS011;27866;48.146;17.098;2022-11-21T08:50:26;55.08;;;30.08;;
42196;SDS011;27866;48.146;17.098;2022-11-21T08:54:37;56.90;;;29.48;;
42196;SDS011;27866;48.146;17.098;2022-11-21T08:58:48;40.38;;;23.27;;
42196;SDS011;27866;48.146;17.098;2022-11-21T09:03:02;27.25;;;15.45;;
42196;SDS011;27866;48.146;17.098;2022-11-21T09:07:16;17.15;;;12.20;;
42196;SDS011;27866;48.146;17.098;2022-11-21T09:11:27;13.65;;;9.60;;
42196;SDS011;27866;48.146;17.098;2022-11-21T09:15:38;16.02;;;9.05;;
42196;SDS011;27866;48.146;17.098;2022-11-21T09:20:08;12.50;;;8.88;;
42196;SDS011;27866;48.146;17.098;2022-11-21T09:24:19;12.20;;;8.27;;
42196;SDS011;27866;48.146;17.098;2022-11-21T09:28:32;11.90;;;8.80;;
42196;SDS011;27866;48.146;17.098;2022-11-21T09:32:45;11.23;;;7.20;;
42196;SDS011;27866;48.146;17.098;2022-11-21T09:36:56;12.50;;;7.05;;
42196;SDS011;27866;48.146;17.098;2022-11-21T09:41:09;10.25;;;7.82;;
42196;SDS011;27866;48.146;17.098;2022-11-21T09:46:29;8.88;;;6.95;;
42196;SDS011;27866;48.146;17.098;2022-11-21T09:50:46;9.48;;;7.13;;
42196;SDS011;27866;48.146;17.098;2022-11-21T09:55:12;10.23;;;7.53;;
42196;SDS011;27866;48.146;17.098;2022-11-21T09:59:38;11.25;;;7.57;;
42196;SDS011;27866;48.146;17.098;2022-11-21T10:03:50;13.20;;;8.20;;
42196;SDS011;27866;48.146;17.098;2022-11-21T10:08:04;10.25;;;7.43;;
42196;SDS011;27866;48.146;17.098;2022-11-21T10:12:48;10.65;;;6.72;;
42196;SDS011;27866;48.146;17.098;2022-11-21T10:26:20;12.23;;;7.90;;
42196;SDS011;27866;48.146;17.098;2022-11-21T10:30:54;13.55;;;8.27;;
42196;SDS011;27866;48.146;17.098;2022-11-21T10:35:13;10.73;;;7.38;;
42196;SDS011;27866;48.146;17.098;2022-11-21T10:39:43;12.53;;;8.17;;
42196;SDS011;27866;48.146;17.098;2022-11-21T10:44:00;11.30;;;7.75;;
42196;SDS011;27866;48.146;17.098;2022-11-21T10:48:33;10.63;;;7.47;;
42196;SDS011;27866;48.146;17.098;2022-11-21T10:52:46;11.15;;;7.55;;
42196;SDS011;27866;48.146;17.098;2022-11-21T10:57:13;10.45;;;6.60;;
42196;SDS011;27866;48.146;17.098;2022-11-21T11:01:33;10.18;;;7.10;;
42196;SDS011;27866;48.146;17.098;2022-11-21T11:05:52;11.35;;;6.95;;
42196;SDS011;27866;48.146;17.098;2022-11-21T11:10:17;9.73;;;7.13;;
42196;SDS011;27866;48.146;17.098;2022-11-21T11:18:53;10.60;;;7.25;;
42196;SDS011;27866;48.146;17.098;2022-11-21T11:23:16;9.90;;;7.20;;
42196;SDS011;27866;48.146;17.098;2022-11-21T11:27:35;11.18;;;7.45;;
42196;SDS011;27866;48.146;17.098;2022-11-21T11:31:59;10.65;;;7.50;;
42196;SDS011;27866;48.146;17.098;2022-11-21T11:36:41;9.32;;;6.93;;
42196;SDS011;27866;48.146;17.098;2022-11-21T11:41:08;10.75;;;7.70;;
42196;SDS011;27866;48.146;17.098;2022-11-21T11:50:20;11.32;;;7.97;;
42196;SDS011;27866;48.146;17.098;2022-11-21T11:54:46;10.75;;;7.40;;
42196;SDS011;27866;48.146;17.098;2022-11-21T12:08:02;10.23;;;7.40;;
42196;SDS011;27866;48.146;17.098;2022-11-21T12:16:51;24.38;;;8.60;;
42196;SDS011;27866;48.146;17.098;2022-11-21T12:21:04;18.48;;;8.07;;
42196;SDS011;27866;48.146;17.098;2022-11-21T12:25:29;12.23;;;7.93;;
42196;SDS011;27866;48.146;17.098;2022-11-21T12:38:59;11.80;;;8.25;;
42196;SDS011;27866;48.146;17.098;2022-11-21T12:43:30;15.18;;;8.50;;
42196;SDS011;27866;48.146;17.098;2022-11-21T12:52:48;12.50;;;8.48;;
42196;SDS011;27866;48.146;17.098;2022-11-21T12:57:32;13.80;;;7.75;;
42196;SDS011;27866;48.146;17.098;2022-11-21T13:06:51;10.90;;;7.57;;
42196;SDS011;27866;48.146;17.098;2022-11-21T13:16:08;10.20;;;6.90;;
42196;SDS011;27866;48.146;17.098;2022-11-21T13:20:47;11.25;;;7.50;;
42196;SDS011;27866;48.146;17.098;2022-11-21T13:25:00;9.88;;;6.70;;
42196;SDS011;27866;48.146;17.098;2022-11-21T13:29:56;15.68;;;7.28;;
42196;SDS011;27866;48.146;17.098;2022-11-21T13:34:36;12.18;;;7.40;;
42196;SDS011;27866;48.146;17.098;2022-11-21T14:06:33;11.18;;;7.45;;
42196;SDS011;27866;48.146;17.098;2022-11-21T14:10:49;11.57;;;8.07;;
42196;SDS011;27866;48.146;17.098;2022-11-21T14:19:18;20.13;;;8.63;;
42196;SDS011;27866;48.146;17.098;2022-11-21T14:23:31;12.65;;;7.88;;
42196;SDS011;27866;48.146;17.098;2022-11-21T14:27:53;14.18;;;7.53;;
42196;SDS011;27866;48.146;17.098;2022-11-21T14:32:12;13.57;;;7.40;;
42196;SDS011;27866;48.146;17.098;2022-11-21T14:36:24;57.88;;;11.52;;
42196;SDS011;27866;48.146;17.098;2022-11-21T14:40:38;29.98;;;10.35;;
42196;SDS011;27866;48.146;17.098;2022-11-21T14:45:04;10.35;;;7.25;;
42196;SDS011;27866;48.146;17.098;2022-11-21T14:49:30;20.70;;;8.52;;
42196;SDS011;27866;48.146;17.098;2022-11-21T14:53:42;26.23;;;9.52;;
42196;SDS011;27866;48.146;17.098;2022-11-21T14:57:57;13.32;;;8.90;;
42196;SDS011;27866;48.146;17.098;2022-11-21T15:02:13;39.85;;;9.65;;
42196;SDS011;27866;48.146;17.098;2022-11-21T15:06:30;15.95;;;9.32;;
42196;SDS011;27866;48.146;17.098;2022-11-21T15:10:54;13.40;;;9.57;;
42196;SDS011;27866;48.146;17.098;2022-11-21T15:19:30;16.67;;;9.85;;
42196;SDS011;27866;48.146;17.098;2022-11-21T15:23:42;17.50;;;9.52;;
42196;SDS011;27866;48.146;17.098;2022-11-21T15:32:09;15.48;;;9.75;;
42196;SDS011;27866;48.146;17.098;2022-11-21T15:36:25;27.50;;;10.52;;
42196;SDS011;27866;48.146;17.098;2022-11-21T15:40:38;16.63;;;10.05;;
42196;SDS011;27866;48.146;17.098;2022-11-21T15:44:57;18.20;;;10.98;;
42196;SDS011;27866;48.146;17.098;2022-11-21T15:49:11;18.13;;;10.98;;
42196;SDS011;27866;48.146;17.098;2022-11-21T15:53:23;18.67;;;10.82;;
42196;SDS011;27866;48.146;17.098;2022-11-21T15:57:34;18.42;;;11.35;;
42196;SDS011;27866;48.146;17.098;2022-11-21T16:01:45;23.63;;;11.93;;
42196;SDS011;27866;48.146;17.098;2022-11-21T16:05:57;21.88;;;11.65;;
42196;SDS011;27866;48.146;17.098;2022-11-21T16:10:08;20.13;;;13.40;;
42196;SDS011;27866;48.146;17.098;2022-11-21T16:14:20;21.83;;;13.60;;
42196;SDS011;27866;48.146;17.098;2022-11-21T16:18:31;22.65;;;14.18;;
42196;SDS011;27866;48.146;17.098;2022-11-21T16:22:42;25.52;;;13.73;;
42196;SDS011;27866;48.146;17.098;2022-11-21T16:26:54;22.80;;;13.77;;
42196;SDS011;27866;48.146;17.098;2022-11-21T16:31:06;24.75;;;13.48;;
42196;SDS011;27866;48.146;17.098;2022-11-21T16:35:28;25.63;;;14.50;;
42196;SDS011;27866;48.146;17.098;2022-11-21T16:39:41;25.92;;;14.15;;
42196;SDS011;27866;48.146;17.098;2022-11-21T16:43:52;31.10;;;15.52;;
42196;SDS011;27866;48.146;17.098;2022-11-21T16:48:05;24.67;;;14.10;;
42196;SDS011;27866;48.146;17.098;2022-11-21T16:52:16;29.27;;;15.43;;
42196;SDS011;27866;48.146;17.098;2022-11-21T16:56:28;25.83;;;14.93;;
42196;SDS011;27866;48.146;17.098;2022-11-21T17:00:39;30.30;;;15.80;;
42196;SDS011;27866;48.146;17.098;2022-11-21T17:04:50;29.77;;;15.68;;
42196;SDS011;27866;48.146;17.098;2022-11-21T17:09:01;24.73;;;14.48;;
42196;SDS011;27866;48.146;17.098;2022-11-21T17:13:13;37.90;;;17.85;;
42196;SDS011;27866;48.146;17.098;2022-11-21T17:17:24;30.20;;;15.73;;
42196;SDS011;27866;48.146;17.098;2022-11-21T17:21:37;27.38;;;15.13;;
42196;SDS011;27866;48.146;17.098;2022-11-21T17:25:48;33.35;;;17.17;;
42196;SDS011;27866;48.146;17.098;2022-11-21T17:29:59;32.75;;;17.42;;
42196;SDS011;27866;48.146;17.098;2022-11-21T17:34:11;35.90;;;18.27;;
42196;SDS011;27866;48.146;17.098;2022-11-21T17:38:22;37.88;;;18.95;;
42196;SDS011;27866;48.146;17.098;2022-11-21T17:42:33;39.47;;;19.35;;
42196;SDS011;27866;48.146;17.098;2022-11-21T17:46:46;41.03;;;19.52;;
42196;SDS011;27866;48.146;17.098;2022-11-21T17:51:01;44.88;;;19.02;;
42196;SDS011;27866;48.146;17.098;2022-11-21T17:55:21;38.60;;;18.67;;
42196;SDS011;27866;48.146;17.098;2022-11-21T17:59:32;34.70;;;17.35;;
42196;SDS011;27866;48.146;17.098;2022-11-21T18:03:44;40.22;;;18.73;;
42196;SDS011;27866;48.146;17.098;2022-11-21T18:08:04;43.60;;;19.63;;
42196;SDS011;27866;48.146;17.098;2022-11-21T18:12:16;43.17;;;19.83;;
42196;SDS011;27866;48.146;17.098;2022-11-21T18:16:28;37.72;;;17.65;;
42196;SDS011;27866;48.146;17.098;2022-11-21T18:20:41;41.72;;;18.23;;
42196;SDS011;27866;48.146;17.098;2022-11-21T18:24:52;36.60;;;18.00;;
42196;SDS011;27866;48.146;17.098;2022-11-21T18:29:04;41.00;;;18.95;;
42196;SDS011;27866;48.146;17.098;2022-11-21T18:33:18;33.80;;;16.73;;
42196;SDS011;27866;48.146;17.098;2022-11-21T18:37:29;37.92;;;17.95;;
42196;SDS011;27866;48.146;17.098;2022-11-21T18:41:43;36.15;;;17.33;;
42196;SDS011;27866;48.146;17.098;2022-11-21T18:46:00;43.85;;;19.60;;
42196;SDS011;27866;48.146;17.098;2022-11-21T18:50:13;43.67;;;22.25;;
42196;SDS011;27866;48.146;17.098;2022-11-21T18:54:25;45.00;;;22.52;;
42196;SDS011;27866;48.146;17.098;2022-11-21T18:58:37;69.10;;;23.10;;
42196;SDS011;27866;48.146;17.098;2022-11-21T19:02:50;92.45;;;23.80;;
42196;SDS011;27866;48.146;17.098;2022-11-21T19:07:01;87.20;;;25.27;;
42196;SDS011;27866;48.146;17.098;2022-11-21T19:11:13;107.10;;;24.60;;
42196;SDS011;27866;48.146;17.098;2022-11-21T19:15:26;148.95;;;27.25;;
42196;SDS011;27866;48.146;17.098;2022-11-21T19:19:37;179.88;;;27.40;;
42196;SDS011;27866;48.146;17.098;2022-11-21T19:23:48;119.85;;;25.55;;
42196;SDS011;27866;48.146;17.098;2022-11-21T19:27:59;248.98;;;31.65;;
42196;SDS011;27866;48.146;17.098;2022-11-21T19:32:11;177.07;;;27.00;;
42196;SDS011;27866;48.146;17.098;2022-11-21T19:36:22;134.85;;;27.92;;
42196;SDS011;27866;48.146;17.098;2022-11-21T19:40:34;83.72;;;23.90;;
42196;SDS011;27866;48.146;17.098;2022-11-21T19:45:06;202.43;;;26.77;;
42196;SDS011;27866;48.146;17.098;2022-11-21T19:49:17;154.48;;;26.58;;
42196;SDS011;27866;48.146;17.098;2022-11-21T19:53:32;187.75;;;28.08;;
42196;SDS011;27866;48.146;17.098;2022-11-21T19:57:45;87.07;;;23.88;;
42196;SDS011;27866;48.146;17.098;2022-11-21T20:01:57;70.45;;;23.20;;
42196;SDS011;27866;48.146;17.098;2022-11-21T20:10:33;85.05;;;23.08;;
42196;SDS011;27866;48.146;17.098;2022-11-21T20:14:44;49.40;;;22.17;;
42196;SDS011;27866;48.146;17.098;2022-11-21T20:18:59;54.63;;;23.10;;
42196;SDS011;27866;48.146;17.098;2022-11-21T20:23:15;60.35;;;24.73;;
42196;SDS011;27866;48.146;17.098;2022-11-21T20:27:26;42.55;;;20.70;;
42196;SDS011;27866;48.146;17.098;2022-11-21T20:31:38;49.20;;;22.00;;
42196;SDS011;27866;48.146;17.098;2022-11-21T20:35:49;46.03;;;21.15;;
42196;SDS011;27866;48.146;17.098;2022-11-21T20:40:01;41.47;;;19.98;;
42196;SDS011;27866;48.146;17.098;2022-11-21T20:44:16;37.17;;;19.23;;
42196;SDS011;27866;48.146;17.098;2022-11-21T20:48:32;37.53;;;19.52;;
42196;SDS011;27866;48.146;17.098;2022-11-21T20:52:45;37.67;;;19.35;;
42196;SDS011;27866;48.146;17.098;2022-11-21T20:56:56;39.00;;;20.73;;
42196;SDS011;27866;48.146;17.098;2022-11-21T21:01:09;56.42;;;24.05;;
42196;SDS011;27866;48.146;17.098;2022-11-21T21:05:22;54.53;;;24.67;;
42196;SDS011;27866;48.146;17.098;2022-11-21T21:09:35;51.00;;;24.88;;
42196;SDS011;27866;48.146;17.098;2022-11-21T21:13:46;56.33;;;25.55;;
42196;SDS011;27866;48.146;17.098;2022-11-21T21:17:58;66.43;;;27.88;;
42196;SDS011;27866;48.146;17.098;2022-11-21T21:22:09;68.90;;;27.30;;
42196;SDS011;27866;48.146;17.098;2022-11-21T21:26:22;93.65;;;31.83;;
42196;SDS011;27866;48.146;17.098;2022-11-21T21:30:39;76.45;;;29.75;;
42196;SDS011;27866;48.146;17.098;2022-11-21T21:34:50;79.30;;;29.17;;
42196;SDS011;27866;48.146;17.098;2022-11-21T21:39:01;82.63;;;28.90;;
42196;SDS011;27866;48.146;17.098;2022-11-21T21:43:13;78.07;;;28.58;;
42196;SDS011;27866;48.146;17.098;2022-11-21T21:47:24;85.40;;;31.35;;
42196;SDS011;27866;48.146;17.098;2022-11-21T21:51:35;103.60;;;30.25;;
42196;SDS011;27866;48.146;17.098;2022-11-21T21:55:47;77.18;;;27.67;;
42196;SDS011;27866;48.146;17.098;2022-11-21T21:59:58;99.45;;;28.10;;
42196;SDS011;27866;48.146;17.098;2022-11-21T22:04:09;89.82;;;30.17;;
42196;SDS011;27866;48.146;17.098;2022-11-21T22:08:21;103.35;;;29.55;;
42196;SDS011;27866;48.146;17.098;2022-11-21T22:12:32;85.72;;;28.23;;
42196;SDS011;27866;48.146;17.098;2022-11-21T22:16:44;77.93;;;27.00;;
42196;SDS011;27866;48.146;17.098;2022-11-21T22:20:55;71.60;;;27.55;;
42196;SDS011;27866;48.146;17.098;2022-11-21T22:25:07;72.72;;;27.17;;
42196;SDS011;27866;48.146;17.098;2022-11-21T22:29:18;58.97;;;27.05;;
42196;SDS011;27866;48.146;17.098;2022-11-21T22:33:30;55.42;;;24.80;;
42196;SDS011;27866;48.146;17.098;2022-11-21T22:37:41;56.38;;;25.77;;
42196;SDS011;27866;48.146;17.098;2022-11-21T22:41:52;60.17;;;25.67;;
42196;SDS011;27866;48.146;17.098;2022-11-21T22:46:10;52.70;;;25.00;;
42196;SDS011;27866;48.146;17.098;2022-11-21T22:50:22;56.83;;;24.80;;
42196;SDS011;27866;48.146;17.098;2022-11-21T22:54:33;64.93;;;25.92;;
42196;SDS011;27866;48.146;17.098;2022-11-21T22:58:44;68.13;;;26.25;;
42196;SDS011;27866;48.146;17.098;2022-11-21T23:02:57;68.40;;;26.75;;
42196;SDS011;27866;48.146;17.098;2022-11-21T23:07:08;63.17;;;23.02;;
42196;SDS011;27866;48.146;17.098;2022-11-21T23:11:20;67.57;;;23.58;;
42196;SDS011;27866;48.146;17.098;2022-11-21T23:15:37;46.15;;;18.65;;
42196;SDS011;27866;48.146;17.098;2022-11-21T23:19:48;47.67;;;20.30;;
42196;SDS011;27866;48.146;17.098;2022-11-21T23:23:59;50.97;;;20.33;;
42196;SDS011;27866;48.146;17.098;2022-11-21T23:28:10;44.28;;;20.38;;
42196;SDS011;27866;48.146;17.098;2022-11-21T23:32:21;48.05;;;20.10;;
42196;SDS011;27866;48.146;17.098;2022-11-21T23:36:32;45.28;;;21.02;;
42196;SDS011;27866;48.146;17.098;2022-11-21T23:40:44;41.30;;;19.10;;
42196;SDS011;27866;48.146;17.098;2022-11-21T23:44:56;45.33;;;18.95;;
42196;SDS011;27866;48.146;17.098;2022-11-21T23:49:08;36.42;;;18.30;;
42196;SDS011;27866;48.146;17.098;2022-11-21T23:53:19;39.53;;;17.83;;
42196;SDS011;27866;48.146;17.098;2022-11-21T23:57:31;48.53;;;19.10;;
